Sherman, Texas
Current Conditions -  °F | °C
As of 2:15 AM on Thursday 27 Nov 2014 (Local Time) from KGYI Reporting Station
Clear Clear  
Wind Chill: 35°   Ceiling: Unl
Heat Index: 42°   Visibility: 10mi
Dew Point: 30°   Wind: 12mph
Humidity: 63%   Direction: 10°N
Pressure: 30.46"   Gusts: NA
Location:  33.64°N, 96.61°W
Report Text: KGYI 270815Z AUTO 01010KT 10SM CLR 06/M01 A3046 RMK AO2 T00551010
Loading
Personal Weather Stations






























Interactive Weather Map New forecast layout! Learn more

10-Day Weather Forecast

Advertisements
Track Severe Weather on mobile